sensor_id;sensor_type;location;lat;lon;timestamp;temperature;humidity
11540;DHT22;5826;54.756;9.192;2023-04-07T00:01:11;7.40;76.40
11540;DHT22;5826;54.756;9.192;2023-04-07T00:03:37;7.40;76.60
11540;DHT22;5826;54.756;9.192;2023-04-07T00:06:05;7.40;76.60
11540;DHT22;5826;54.756;9.192;2023-04-07T00:08:30;7.40;76.50
11540;DHT22;5826;54.756;9.192;2023-04-07T00:10:56;7.40;77.20
11540;DHT22;5826;54.756;9.192;2023-04-07T00:13:22;7.40;76.20
11540;DHT22;5826;54.756;9.192;2023-04-07T00:15:48;7.40;76.50
11540;DHT22;5826;54.756;9.192;2023-04-07T00:18:13;7.40;76.80
11540;DHT22;5826;54.756;9.192;2023-04-07T00:20:39;7.30;77.00
11540;DHT22;5826;54.756;9.192;2023-04-07T00:23:05;7.30;77.10
11540;DHT22;5826;54.756;9.192;2023-04-07T00:25:30;7.30;76.90
11540;DHT22;5826;54.756;9.192;2023-04-07T00:27:56;7.30;77.10
11540;DHT22;5826;54.756;9.192;2023-04-07T00:30:21;7.30;77.00
11540;DHT22;5826;54.756;9.192;2023-04-07T00:32:47;7.30;77.40
11540;DHT22;5826;54.756;9.192;2023-04-07T00:35:12;7.20;77.30
11540;DHT22;5826;54.756;9.192;2023-04-07T00:37:38;7.30;77.80
11540;DHT22;5826;54.756;9.192;2023-04-07T00:40:04;7.30;77.40
11540;DHT22;5826;54.756;9.192;2023-04-07T00:42:30;7.30;76.90
11540;DHT22;5826;54.756;9.192;2023-04-07T00:44:57;7.30;76.90
11540;DHT22;5826;54.756;9.192;2023-04-07T00:47:22;7.30;76.50
11540;DHT22;5826;54.756;9.192;2023-04-07T00:49:48;7.20;76.80
11540;DHT22;5826;54.756;9.192;2023-04-07T00:52:14;7.20;76.50
11540;DHT22;5826;54.756;9.192;2023-04-07T00:54:41;7.20;77.20
11540;DHT22;5826;54.756;9.192;2023-04-07T00:57:07;7.30;77.10
11540;DHT22;5826;54.756;9.192;2023-04-07T00:59:33;7.20;77.00
11540;DHT22;5826;54.756;9.192;2023-04-07T01:04:44;7.20;77.10
11540;DHT22;5826;54.756;9.192;2023-04-07T01:07:31;7.10;77.00
11540;DHT22;5826;54.756;9.192;2023-04-07T01:10:05;7.10;77.40
11540;DHT22;5826;54.756;9.192;2023-04-07T01:12:43;7.10;77.50
11540;DHT22;5826;54.756;9.192;2023-04-07T01:15:12;7.10;77.80
11540;DHT22;5826;54.756;9.192;2023-04-07T01:17:50;7.10;77.70
11540;DHT22;5826;54.756;9.192;2023-04-07T01:20:20;7.10;78.30
11540;DHT22;5826;54.756;9.192;2023-04-07T01:22:52;7.10;77.70
11540;DHT22;5826;54.756;9.192;2023-04-07T01:28:43;7.10;77.80
11540;DHT22;5826;54.756;9.192;2023-04-07T01:31:12;7.00;78.00
11540;DHT22;5826;54.756;9.192;2023-04-07T01:33:40;7.00;78.50
11540;DHT22;5826;54.756;9.192;2023-04-07T01:36:08;6.90;77.90
11540;DHT22;5826;54.756;9.192;2023-04-07T01:38:34;6.90;77.80
11540;DHT22;5826;54.756;9.192;2023-04-07T01:41:00;6.90;78.60
11540;DHT22;5826;54.756;9.192;2023-04-07T01:43:27;6.90;78.20
11540;DHT22;5826;54.756;9.192;2023-04-07T01:45:56;6.90;78.40
11540;DHT22;5826;54.756;9.192;2023-04-07T01:48:22;6.90;78.30
11540;DHT22;5826;54.756;9.192;2023-04-07T01:50:48;6.80;78.30
11540;DHT22;5826;54.756;9.192;2023-04-07T01:53:14;6.80;78.50
11540;DHT22;5826;54.756;9.192;2023-04-07T01:55:42;6.80;78.40
11540;DHT22;5826;54.756;9.192;2023-04-07T01:58:08;6.80;78.00
11540;DHT22;5826;54.756;9.192;2023-04-07T02:00:34;6.80;78.40
11540;DHT22;5826;54.756;9.192;2023-04-07T02:03:08;6.70;78.50
11540;DHT22;5826;54.756;9.192;2023-04-07T02:05:37;6.70;78.20
11540;DHT22;5826;54.756;9.192;2023-04-07T02:08:06;6.70;78.30
11540;DHT22;5826;54.756;9.192;2023-04-07T02:10:34;6.60;78.40
11540;DHT22;5826;54.756;9.192;2023-04-07T02:13:04;6.60;78.50
11540;DHT22;5826;54.756;9.192;2023-04-07T02:15:31;6.60;78.70
11540;DHT22;5826;54.756;9.192;2023-04-07T02:17:58;6.60;78.80
11540;DHT22;5826;54.756;9.192;2023-04-07T02:20:24;6.60;78.40
11540;DHT22;5826;54.756;9.192;2023-04-07T02:22:51;6.60;79.10
11540;DHT22;5826;54.756;9.192;2023-04-07T02:25:21;6.60;78.90
11540;DHT22;5826;54.756;9.192;2023-04-07T02:27:47;6.60;78.50
11540;DHT22;5826;54.756;9.192;2023-04-07T02:30:13;6.50;78.70
11540;DHT22;5826;54.756;9.192;2023-04-07T02:32:39;6.50;78.90
11540;DHT22;5826;54.756;9.192;2023-04-07T02:35:05;6.50;79.00
11540;DHT22;5826;54.756;9.192;2023-04-07T02:37:30;6.50;79.50
11540;DHT22;5826;54.756;9.192;2023-04-07T02:39:56;6.50;79.50
11540;DHT22;5826;54.756;9.192;2023-04-07T02:42:21;6.50;79.20
11540;DHT22;5826;54.756;9.192;2023-04-07T02:44:47;6.50;79.20
11540;DHT22;5826;54.756;9.192;2023-04-07T02:47:12;6.50;79.80
11540;DHT22;5826;54.756;9.192;2023-04-07T02:49:38;6.50;79.10
11540;DHT22;5826;54.756;9.192;2023-04-07T02:52:03;6.40;79.50
11540;DHT22;5826;54.756;9.192;2023-04-07T02:54:29;6.40;79.50
11540;DHT22;5826;54.756;9.192;2023-04-07T02:56:54;6.50;79.60
11540;DHT22;5826;54.756;9.192;2023-04-07T02:59:21;6.50;79.40
11540;DHT22;5826;54.756;9.192;2023-04-07T03:01:47;6.40;79.10
11540;DHT22;5826;54.756;9.192;2023-04-07T03:04:12;6.40;79.60
11540;DHT22;5826;54.756;9.192;2023-04-07T03:06:37;6.40;80.10
11540;DHT22;5826;54.756;9.192;2023-04-07T03:09:03;6.40;79.60
11540;DHT22;5826;54.756;9.192;2023-04-07T03:11:28;6.40;79.60
11540;DHT22;5826;54.756;9.192;2023-04-07T03:13:54;6.30;79.90
11540;DHT22;5826;54.756;9.192;2023-04-07T03:16:20;6.30;80.00
11540;DHT22;5826;54.756;9.192;2023-04-07T03:18:45;6.30;80.20
11540;DHT22;5826;54.756;9.192;2023-04-07T03:21:11;6.30;80.40
11540;DHT22;5826;54.756;9.192;2023-04-07T03:23:37;6.30;79.90
11540;DHT22;5826;54.756;9.192;2023-04-07T03:26:02;6.30;80.10
11540;DHT22;5826;54.756;9.192;2023-04-07T03:28:28;6.30;79.80
11540;DHT22;5826;54.756;9.192;2023-04-07T03:30:53;6.30;80.20
11540;DHT22;5826;54.756;9.192;2023-04-07T03:33:19;6.30;80.20
11540;DHT22;5826;54.756;9.192;2023-04-07T03:35:45;6.30;80.50
11540;DHT22;5826;54.756;9.192;2023-04-07T03:38:10;6.20;80.30
11540;DHT22;5826;54.756;9.192;2023-04-07T03:40:36;6.30;80.80
11540;DHT22;5826;54.756;9.192;2023-04-07T03:43:01;6.20;80.60
11540;DHT22;5826;54.756;9.192;2023-04-07T03:45:27;6.20;80.50
11540;DHT22;5826;54.756;9.192;2023-04-07T03:47:52;6.20;80.10
11540;DHT22;5826;54.756;9.192;2023-04-07T03:50:18;6.20;80.30
11540;DHT22;5826;54.756;9.192;2023-04-07T03:52:44;6.10;80.70
11540;DHT22;5826;54.756;9.192;2023-04-07T03:55:10;6.10;81.00
11540;DHT22;5826;54.756;9.192;2023-04-07T03:57:35;6.10;80.90
11540;DHT22;5826;54.756;9.192;2023-04-07T04:00:01;6.10;80.90
11540;DHT22;5826;54.756;9.192;2023-04-07T04:02:27;6.10;80.60
11540;DHT22;5826;54.756;9.192;2023-04-07T04:04:52;6.10;81.10
11540;DHT22;5826;54.756;9.192;2023-04-07T04:07:18;6.10;81.30
11540;DHT22;5826;54.756;9.192;2023-04-07T04:09:43;6.00;80.80
11540;DHT22;5826;54.756;9.192;2023-04-07T04:12:09;6.00;80.90
11540;DHT22;5826;54.756;9.192;2023-04-07T04:14:34;6.00;81.50
11540;DHT22;5826;54.756;9.192;2023-04-07T04:17:00;5.90;81.10
11540;DHT22;5826;54.756;9.192;2023-04-07T04:19:25;6.00;81.60
11540;DHT22;5826;54.756;9.192;2023-04-07T04:21:51;5.90;81.70
11540;DHT22;5826;54.756;9.192;2023-04-07T04:24:16;6.00;81.70
11540;DHT22;5826;54.756;9.192;2023-04-07T04:26:42;5.90;82.00
11540;DHT22;5826;54.756;9.192;2023-04-07T04:29:07;5.90;81.30
11540;DHT22;5826;54.756;9.192;2023-04-07T04:31:33;5.90;81.60
11540;DHT22;5826;54.756;9.192;2023-04-07T04:33:58;5.90;82.10
11540;DHT22;5826;54.756;9.192;2023-04-07T04:36:24;5.90;81.70
11540;DHT22;5826;54.756;9.192;2023-04-07T04:38:50;5.90;81.70
11540;DHT22;5826;54.756;9.192;2023-04-07T04:41:16;5.90;81.90
11540;DHT22;5826;54.756;9.192;2023-04-07T04:43:41;5.90;81.90
11540;DHT22;5826;54.756;9.192;2023-04-07T04:46:07;5.90;82.00
11540;DHT22;5826;54.756;9.192;2023-04-07T04:48:32;6.00;82.10
11540;DHT22;5826;54.756;9.192;2023-04-07T04:50:58;6.00;81.90
11540;DHT22;5826;54.756;9.192;2023-04-07T04:53:23;5.90;82.60
11540;DHT22;5826;54.756;9.192;2023-04-07T04:55:49;5.90;82.30
11540;DHT22;5826;54.756;9.192;2023-04-07T04:58:17;5.90;82.40
11540;DHT22;5826;54.756;9.192;2023-04-07T05:00:43;5.90;82.10
11540;DHT22;5826;54.756;9.192;2023-04-07T05:03:08;5.90;82.70
11540;DHT22;5826;54.756;9.192;2023-04-07T05:05:34;6.00;82.50
11540;DHT22;5826;54.756;9.192;2023-04-07T05:07:59;6.00;83.00
11540;DHT22;5826;54.756;9.192;2023-04-07T05:10:25;6.00;82.50
11540;DHT22;5826;54.756;9.192;2023-04-07T05:12:51;6.00;82.50
11540;DHT22;5826;54.756;9.192;2023-04-07T05:15:16;6.00;83.10
11540;DHT22;5826;54.756;9.192;2023-04-07T05:17:42;6.10;83.50
11540;DHT22;5826;54.756;9.192;2023-04-07T05:20:08;6.10;83.10
11540;DHT22;5826;54.756;9.192;2023-04-07T05:22:34;6.10;82.50
11540;DHT22;5826;54.756;9.192;2023-04-07T05:25:00;6.20;82.70
11540;DHT22;5826;54.756;9.192;2023-04-07T05:27:26;6.20;82.70
11540;DHT22;5826;54.756;9.192;2023-04-07T05:29:51;6.20;82.70
11540;DHT22;5826;54.756;9.192;2023-04-07T05:32:18;6.30;83.40
11540;DHT22;5826;54.756;9.192;2023-04-07T05:34:43;6.30;82.40
11540;DHT22;5826;54.756;9.192;2023-04-07T05:37:09;6.40;83.50
11540;DHT22;5826;54.756;9.192;2023-04-07T05:39:35;6.40;83.20
11540;DHT22;5826;54.756;9.192;2023-04-07T05:42:00;6.50;82.70
11540;DHT22;5826;54.756;9.192;2023-04-07T05:44:27;6.50;82.40
11540;DHT22;5826;54.756;9.192;2023-04-07T05:46:52;6.60;82.80
11540;DHT22;5826;54.756;9.192;2023-04-07T05:49:18;6.60;83.00
11540;DHT22;5826;54.756;9.192;2023-04-07T05:51:43;6.70;82.40
11540;DHT22;5826;54.756;9.192;2023-04-07T05:54:09;6.60;83.00
11540;DHT22;5826;54.756;9.192;2023-04-07T05:56:34;6.70;82.70
11540;DHT22;5826;54.756;9.192;2023-04-07T05:59:00;6.70;82.10
11540;DHT22;5826;54.756;9.192;2023-04-07T06:01:26;6.70;82.60
11540;DHT22;5826;54.756;9.192;2023-04-07T06:03:52;6.80;82.60
11540;DHT22;5826;54.756;9.192;2023-04-07T06:06:17;6.80;82.60
11540;DHT22;5826;54.756;9.192;2023-04-07T06:08:43;6.90;82.70
11540;DHT22;5826;54.756;9.192;2023-04-07T06:11:08;6.90;82.70
11540;DHT22;5826;54.756;9.192;2023-04-07T06:13:34;6.90;82.70
11540;DHT22;5826;54.756;9.192;2023-04-07T06:15:59;6.90;83.00
11540;DHT22;5826;54.756;9.192;2023-04-07T06:18:25;7.00;83.10
11540;DHT22;5826;54.756;9.192;2023-04-07T06:20:50;7.00;83.30
11540;DHT22;5826;54.756;9.192;2023-04-07T06:23:16;7.00;81.90
11540;DHT22;5826;54.756;9.192;2023-04-07T06:25:41;7.00;82.30
11540;DHT22;5826;54.756;9.192;2023-04-07T06:28:07;7.10;81.80
11540;DHT22;5826;54.756;9.192;2023-04-07T06:30:33;7.10;81.60
11540;DHT22;5826;54.756;9.192;2023-04-07T06:32:58;7.10;81.70
11540;DHT22;5826;54.756;9.192;2023-04-07T06:35:25;7.20;82.10
11540;DHT22;5826;54.756;9.192;2023-04-07T06:37:52;7.20;82.50
11540;DHT22;5826;54.756;9.192;2023-04-07T06:40:17;7.20;82.20
11540;DHT22;5826;54.756;9.192;2023-04-07T06:42:43;7.30;82.30
11540;DHT22;5826;54.756;9.192;2023-04-07T06:45:09;7.30;81.30
11540;DHT22;5826;54.756;9.192;2023-04-07T06:47:34;7.40;81.00
11540;DHT22;5826;54.756;9.192;2023-04-07T06:50:00;7.40;81.30
11540;DHT22;5826;54.756;9.192;2023-04-07T06:52:25;7.50;81.50
11540;DHT22;5826;54.756;9.192;2023-04-07T06:54:51;7.50;80.80
11540;DHT22;5826;54.756;9.192;2023-04-07T06:57:16;7.60;81.20
11540;DHT22;5826;54.756;9.192;2023-04-07T06:59:42;7.60;81.40
11540;DHT22;5826;54.756;9.192;2023-04-07T07:02:07;7.70;80.90
11540;DHT22;5826;54.756;9.192;2023-04-07T07:04:36;7.70;81.00
11540;DHT22;5826;54.756;9.192;2023-04-07T07:07:01;7.80;80.00
11540;DHT22;5826;54.756;9.192;2023-04-07T07:09:27;7.80;80.30
11540;DHT22;5826;54.756;9.192;2023-04-07T07:11:53;7.80;80.30
11540;DHT22;5826;54.756;9.192;2023-04-07T07:14:18;7.90;80.50
11540;DHT22;5826;54.756;9.192;2023-04-07T07:16:44;7.90;79.80
11540;DHT22;5826;54.756;9.192;2023-04-07T07:19:09;8.00;79.80
11540;DHT22;5826;54.756;9.192;2023-04-07T07:21:35;8.00;79.60
11540;DHT22;5826;54.756;9.192;2023-04-07T07:24:01;8.20;79.60
11540;DHT22;5826;54.756;9.192;2023-04-07T07:26:26;8.20;78.80
11540;DHT22;5826;54.756;9.192;2023-04-07T07:28:52;8.30;79.20
11540;DHT22;5826;54.756;9.192;2023-04-07T07:31:17;8.40;79.40
11540;DHT22;5826;54.756;9.192;2023-04-07T07:33:43;8.50;78.30
11540;DHT22;5826;54.756;9.192;2023-04-07T07:36:10;8.50;78.40
11540;DHT22;5826;54.756;9.192;2023-04-07T07:38:38;8.60;78.80
11540;DHT22;5826;54.756;9.192;2023-04-07T07:41:04;8.70;78.80
11540;DHT22;5826;54.756;9.192;2023-04-07T07:43:30;8.70;78.00
11540;DHT22;5826;54.756;9.192;2023-04-07T07:45:56;8.70;77.70
11540;DHT22;5826;54.756;9.192;2023-04-07T07:48:21;8.80;78.00
11540;DHT22;5826;54.756;9.192;2023-04-07T07:50:47;8.80;77.60
11540;DHT22;5826;54.756;9.192;2023-04-07T07:53:13;8.90;77.50
11540;DHT22;5826;54.756;9.192;2023-04-07T07:55:39;8.90;77.20
11540;DHT22;5826;54.756;9.192;2023-04-07T07:58:05;9.80;77.50
11540;DHT22;5826;54.756;9.192;2023-04-07T08:00:30;9.00;77.60
11540;DHT22;5826;54.756;9.192;2023-04-07T08:02:56;9.00;77.60
11540;DHT22;5826;54.756;9.192;2023-04-07T08:05:21;9.10;77.20
11540;DHT22;5826;54.756;9.192;2023-04-07T08:07:47;9.20;76.90
11540;DHT22;5826;54.756;9.192;2023-04-07T08:10:13;9.30;76.80
11540;DHT22;5826;54.756;9.192;2023-04-07T08:12:39;9.30;76.40
11540;DHT22;5826;54.756;9.192;2023-04-07T08:15:05;9.40;76.30
11540;DHT22;5826;54.756;9.192;2023-04-07T08:17:34;9.50;76.30
11540;DHT22;5826;54.756;9.192;2023-04-07T08:20:00;9.50;75.90
11540;DHT22;5826;54.756;9.192;2023-04-07T08:22:25;9.50;75.70
11540;DHT22;5826;54.756;9.192;2023-04-07T08:24:51;9.60;75.50
11540;DHT22;5826;54.756;9.192;2023-04-07T08:27:16;9.70;75.70
11540;DHT22;5826;54.756;9.192;2023-04-07T08:29:42;9.70;75.40
11540;DHT22;5826;54.756;9.192;2023-04-07T08:32:07;9.80;75.20
11540;DHT22;5826;54.756;9.192;2023-04-07T08:34:33;9.90;75.00
11540;DHT22;5826;54.756;9.192;2023-04-07T08:36:58;10.00;74.60
11540;DHT22;5826;54.756;9.192;2023-04-07T08:39:24;10.00;74.60
11540;DHT22;5826;54.756;9.192;2023-04-07T08:41:50;10.10;74.30
11540;DHT22;5826;54.756;9.192;2023-04-07T08:44:16;10.20;74.50
11540;DHT22;5826;54.756;9.192;2023-04-07T08:46:42;10.30;74.40
11540;DHT22;5826;54.756;9.192;2023-04-07T08:49:10;10.40;74.40
11540;DHT22;5826;54.756;9.192;2023-04-07T08:51:46;10.40;74.10
11540;DHT22;5826;54.756;9.192;2023-04-07T08:54:14;10.50;73.90
11540;DHT22;5826;54.756;9.192;2023-04-07T08:56:41;10.60;73.80
11540;DHT22;5826;54.756;9.192;2023-04-07T08:59:12;10.70;73.80
11540;DHT22;5826;54.756;9.192;2023-04-07T09:01:39;10.70;74.00
11540;DHT22;5826;54.756;9.192;2023-04-07T09:04:06;10.80;73.40
11540;DHT22;5826;54.756;9.192;2023-04-07T09:06:33;10.90;73.40
11540;DHT22;5826;54.756;9.192;2023-04-07T09:09:03;11.00;73.40
11540;DHT22;5826;54.756;9.192;2023-04-07T09:11:35;11.10;72.80
11540;DHT22;5826;54.756;9.192;2023-04-07T09:14:00;11.20;72.80
11540;DHT22;5826;54.756;9.192;2023-04-07T09:16:28;11.30;72.70
11540;DHT22;5826;54.756;9.192;2023-04-07T09:18:55;11.30;72.40
11540;DHT22;5826;54.756;9.192;2023-04-07T09:21:20;11.40;72.40
11540;DHT22;5826;54.756;9.192;2023-04-07T09:23:46;11.40;72.30
11540;DHT22;5826;54.756;9.192;2023-04-07T09:26:19;11.50;72.10
11540;DHT22;5826;54.756;9.192;2023-04-07T09:28:52;11.60;71.90
11540;DHT22;5826;54.756;9.192;2023-04-07T09:31:18;11.70;71.90
11540;DHT22;5826;54.756;9.192;2023-04-07T09:33:46;11.70;72.20
11540;DHT22;5826;54.756;9.192;2023-04-07T09:36:12;11.90;72.00
11540;DHT22;5826;54.756;9.192;2023-04-07T09:38:39;11.90;71.80
11540;DHT22;5826;54.756;9.192;2023-04-07T09:41:08;11.90;71.60
11540;DHT22;5826;54.756;9.192;2023-04-07T09:43:39;12.00;71.70
11540;DHT22;5826;54.756;9.192;2023-04-07T09:46:16;12.10;71.90
11540;DHT22;5826;54.756;9.192;2023-04-07T09:48:43;12.20;71.70
11540;DHT22;5826;54.756;9.192;2023-04-07T09:51:12;12.30;71.00
11540;DHT22;5826;54.756;9.192;2023-04-07T09:53:51;12.30;71.30
11540;DHT22;5826;54.756;9.192;2023-04-07T09:56:18;12.40;71.10
11540;DHT22;5826;54.756;9.192;2023-04-07T09:58:47;12.50;71.00
11540;DHT22;5826;54.756;9.192;2023-04-07T10:01:14;12.60;70.50
11540;DHT22;5826;54.756;9.192;2023-04-07T10:03:45;12.70;70.60
11540;DHT22;5826;54.756;9.192;2023-04-07T10:06:11;12.70;70.50
11540;DHT22;5826;54.756;9.192;2023-04-07T10:08:40;12.80;70.50
11540;DHT22;5826;54.756;9.192;2023-04-07T10:11:06;12.80;70.20
11540;DHT22;5826;54.756;9.192;2023-04-07T10:13:34;12.80;69.80
11540;DHT22;5826;54.756;9.192;2023-04-07T10:16:03;12.90;70.10
11540;DHT22;5826;54.756;9.192;2023-04-07T10:18:31;12.90;69.70
11540;DHT22;5826;54.756;9.192;2023-04-07T10:21:02;13.00;70.20
11540;DHT22;5826;54.756;9.192;2023-04-07T10:23:52;13.00;70.20
11540;DHT22;5826;54.756;9.192;2023-04-07T10:26:22;13.10;69.90
11540;DHT22;5826;54.756;9.192;2023-04-07T10:28:54;13.20;69.90
11540;DHT22;5826;54.756;9.192;2023-04-07T10:31:22;13.20;70.50
11540;DHT22;5826;54.756;9.192;2023-04-07T10:33:49;13.40;69.90
11540;DHT22;5826;54.756;9.192;2023-04-07T10:36:19;13.40;69.60
11540;DHT22;5826;54.756;9.192;2023-04-07T10:41:37;13.40;69.70
11540;DHT22;5826;54.756;9.192;2023-04-07T10:44:04;13.40;70.10
11540;DHT22;5826;54.756;9.192;2023-04-07T10:49:12;13.20;70.30
11540;DHT22;5826;54.756;9.192;2023-04-07T10:51:38;13.20;70.40
11540;DHT22;5826;54.756;9.192;2023-04-07T10:54:20;13.30;70.60
11540;DHT22;5826;54.756;9.192;2023-04-07T10:59:31;13.40;69.80
11540;DHT22;5826;54.756;9.192;2023-04-07T11:04:42;13.50;70.20
11540;DHT22;5826;54.756;9.192;2023-04-07T11:07:09;13.60;70.00
11540;DHT22;5826;54.756;9.192;2023-04-07T11:09:35;13.80;69.90
11540;DHT22;5826;54.756;9.192;2023-04-07T11:12:01;13.90;69.40
11540;DHT22;5826;54.756;9.192;2023-04-07T11:14:27;13.90;69.60
11540;DHT22;5826;54.756;9.192;2023-04-07T11:16:53;13.90;69.20
11540;DHT22;5826;54.756;9.192;2023-04-07T11:19:19;13.90;69.40
11540;DHT22;5826;54.756;9.192;2023-04-07T11:21:45;13.90;70.00
11540;DHT22;5826;54.756;9.192;2023-04-07T11:26:57;13.80;69.70
11540;DHT22;5826;54.756;9.192;2023-04-07T11:29:32;13.80;69.70
11540;DHT22;5826;54.756;9.192;2023-04-07T11:32:00;13.80;69.90
11540;DHT22;5826;54.756;9.192;2023-04-07T11:34:29;13.80;69.80
11540;DHT22;5826;54.756;9.192;2023-04-07T11:36:56;13.90;70.20
11540;DHT22;5826;54.756;9.192;2023-04-07T11:39:25;14.50;70.60
11540;DHT22;5826;54.756;9.192;2023-04-07T11:41:57;14.00;69.70
11540;DHT22;5826;54.756;9.192;2023-04-07T11:44:23;14.00;69.00
11540;DHT22;5826;54.756;9.192;2023-04-07T11:46:57;14.00;69.10
11540;DHT22;5826;54.756;9.192;2023-04-07T11:49:24;14.00;68.80
11540;DHT22;5826;54.756;9.192;2023-04-07T11:52:00;14.10;68.90
11540;DHT22;5826;54.756;9.192;2023-04-07T11:54:26;14.10;69.20
11540;DHT22;5826;54.756;9.192;2023-04-07T11:56:52;14.10;69.20
11540;DHT22;5826;54.756;9.192;2023-04-07T11:59:21;14.20;68.80
11540;DHT22;5826;54.756;9.192;2023-04-07T12:01:48;14.30;68.80
11540;DHT22;5826;54.756;9.192;2023-04-07T12:04:15;14.40;68.70
11540;DHT22;5826;54.756;9.192;2023-04-07T12:06:42;14.70;68.30
11540;DHT22;5826;54.756;9.192;2023-04-07T12:09:23;14.90;68.30
11540;DHT22;5826;54.756;9.192;2023-04-07T12:11:49;15.10;67.00
11540;DHT22;5826;54.756;9.192;2023-04-07T12:14:14;15.20;67.10
11540;DHT22;5826;54.756;9.192;2023-04-07T12:16:40;15.30;66.30
11540;DHT22;5826;54.756;9.192;2023-04-07T12:19:06;15.60;66.00
11540;DHT22;5826;54.756;9.192;2023-04-07T12:21:32;15.80;65.10
11540;DHT22;5826;54.756;9.192;2023-04-07T12:23:58;16.00;63.80
11540;DHT22;5826;54.756;9.192;2023-04-07T12:26:23;16.10;63.50
11540;DHT22;5826;54.756;9.192;2023-04-07T12:28:49;16.10;63.20
11540;DHT22;5826;54.756;9.192;2023-04-07T12:31:15;16.20;63.00
11540;DHT22;5826;54.756;9.192;2023-04-07T12:33:41;16.10;63.00
11540;DHT22;5826;54.756;9.192;2023-04-07T12:36:06;16.10;62.70
11540;DHT22;5826;54.756;9.192;2023-04-07T12:38:32;16.10;61.90
11540;DHT22;5826;54.756;9.192;2023-04-07T12:40:57;16.20;61.60
11540;DHT22;5826;54.756;9.192;2023-04-07T12:43:30;16.20;60.20
11540;DHT22;5826;54.756;9.192;2023-04-07T12:45:56;16.20;60.60
11540;DHT22;5826;54.756;9.192;2023-04-07T12:48:23;16.30;60.60
11540;DHT22;5826;54.756;9.192;2023-04-07T12:50:50;16.40;60.40
11540;DHT22;5826;54.756;9.192;2023-04-07T12:53:16;16.50;59.20
11540;DHT22;5826;54.756;9.192;2023-04-07T12:55:41;16.70;59.50
11540;DHT22;5826;54.756;9.192;2023-04-07T12:58:07;16.90;59.30
11540;DHT22;5826;54.756;9.192;2023-04-07T13:00:33;17.00;60.10
11540;DHT22;5826;54.756;9.192;2023-04-07T13:02:59;17.10;59.40
11540;DHT22;5826;54.756;9.192;2023-04-07T13:05:24;17.20;58.90
11540;DHT22;5826;54.756;9.192;2023-04-07T13:07:50;17.30;58.60
11540;DHT22;5826;54.756;9.192;2023-04-07T13:10:16;17.40;59.00
11540;DHT22;5826;54.756;9.192;2023-04-07T13:12:41;17.60;57.60
11540;DHT22;5826;54.756;9.192;2023-04-07T13:15:07;17.70;58.10
11540;DHT22;5826;54.756;9.192;2023-04-07T13:17:33;17.90;58.20
11540;DHT22;5826;54.756;9.192;2023-04-07T13:20:01;17.90;58.40
11540;DHT22;5826;54.756;9.192;2023-04-07T13:22:28;18.00;58.50
11540;DHT22;5826;54.756;9.192;2023-04-07T13:24:53;18.20;59.10
11540;DHT22;5826;54.756;9.192;2023-04-07T13:27:19;18.50;59.70
11540;DHT22;5826;54.756;9.192;2023-04-07T13:29:45;18.70;59.10
11540;DHT22;5826;54.756;9.192;2023-04-07T13:32:11;18.80;60.00
11540;DHT22;5826;54.756;9.192;2023-04-07T13:34:38;19.00;59.30
11540;DHT22;5826;54.756;9.192;2023-04-07T13:37:04;19.30;59.50
11540;DHT22;5826;54.756;9.192;2023-04-07T13:39:30;19.40;58.80
11540;DHT22;5826;54.756;9.192;2023-04-07T13:41:56;19.40;57.60
11540;DHT22;5826;54.756;9.192;2023-04-07T13:44:22;19.70;57.00
11540;DHT22;5826;54.756;9.192;2023-04-07T13:46:48;19.90;56.80
11540;DHT22;5826;54.756;9.192;2023-04-07T13:49:13;20.40;57.00
11540;DHT22;5826;54.756;9.192;2023-04-07T13:51:39;21.00;54.90
11540;DHT22;5826;54.756;9.192;2023-04-07T13:54:05;21.70;53.50
11540;DHT22;5826;54.756;9.192;2023-04-07T13:56:31;22.70;51.60
11540;DHT22;5826;54.756;9.192;2023-04-07T13:58:56;24.00;49.70
11540;DHT22;5826;54.756;9.192;2023-04-07T14:01:22;25.50;47.20
11540;DHT22;5826;54.756;9.192;2023-04-07T14:03:48;27.10;45.20
11540;DHT22;5826;54.756;9.192;2023-04-07T14:06:13;28.80;43.60
11540;DHT22;5826;54.756;9.192;2023-04-07T14:08:39;30.40;42.40
11540;DHT22;5826;54.756;9.192;2023-04-07T14:11:05;31.90;41.40
11540;DHT22;5826;54.756;9.192;2023-04-07T14:13:30;33.00;40.50
11540;DHT22;5826;54.756;9.192;2023-04-07T14:15:56;34.00;40.20
11540;DHT22;5826;54.756;9.192;2023-04-07T14:18:21;34.80;40.50
11540;DHT22;5826;54.756;9.192;2023-04-07T14:20:48;35.50;40.10
11540;DHT22;5826;54.756;9.192;2023-04-07T14:23:13;36.10;41.10
11540;DHT22;5826;54.756;9.192;2023-04-07T14:25:39;36.50;42.60
11540;DHT22;5826;54.756;9.192;2023-04-07T14:28:04;36.90;42.20
11540;DHT22;5826;54.756;9.192;2023-04-07T14:30:30;37.00;45.40
11540;DHT22;5826;54.756;9.192;2023-04-07T14:32:56;37.10;44.90
11540;DHT22;5826;54.756;9.192;2023-04-07T14:35:21;37.50;45.40
11540;DHT22;5826;54.756;9.192;2023-04-07T14:37:47;37.70;46.60
11540;DHT22;5826;54.756;9.192;2023-04-07T14:40:12;37.70;47.10
11540;DHT22;5826;54.756;9.192;2023-04-07T14:42:38;37.70;47.60
11540;DHT22;5826;54.756;9.192;2023-04-07T14:45:04;37.70;48.40
11540;DHT22;5826;54.756;9.192;2023-04-07T14:47:30;37.80;49.80
11540;DHT22;5826;54.756;9.192;2023-04-07T14:49:55;38.10;51.10
11540;DHT22;5826;54.756;9.192;2023-04-07T14:52:21;38.30;49.50
11540;DHT22;5826;54.756;9.192;2023-04-07T14:54:46;38.40;50.80
11540;DHT22;5826;54.756;9.192;2023-04-07T14:57:12;38.50;51.60
11540;DHT22;5826;54.756;9.192;2023-04-07T14:59:38;38.60;52.60
11540;DHT22;5826;54.756;9.192;2023-04-07T15:02:03;38.70;51.90
11540;DHT22;5826;54.756;9.192;2023-04-07T15:04:29;38.50;51.40
11540;DHT22;5826;54.756;9.192;2023-04-07T15:06:54;38.40;52.30
11540;DHT22;5826;54.756;9.192;2023-04-07T15:09:20;38.30;51.80
11540;DHT22;5826;54.756;9.192;2023-04-07T15:11:46;38.10;51.70
11540;DHT22;5826;54.756;9.192;2023-04-07T15:14:11;37.90;51.80
11540;DHT22;5826;54.756;9.192;2023-04-07T15:16:37;37.90;51.40
11540;DHT22;5826;54.756;9.192;2023-04-07T15:19:02;37.90;51.60
11540;DHT22;5826;54.756;9.192;2023-04-07T15:21:28;37.80;51.20
11540;DHT22;5826;54.756;9.192;2023-04-07T15:23:53;37.80;52.40
11540;DHT22;5826;54.756;9.192;2023-04-07T15:26:19;37.70;51.50
11540;DHT22;5826;54.756;9.192;2023-04-07T15:28:45;37.60;51.00
11540;DHT22;5826;54.756;9.192;2023-04-07T15:31:10;37.40;51.90
11540;DHT22;5826;54.756;9.192;2023-04-07T15:33:37;37.30;51.10
11540;DHT22;5826;54.756;9.192;2023-04-07T15:36:06;37.20;51.60
11540;DHT22;5826;54.756;9.192;2023-04-07T15:38:32;37.20;51.10
11540;DHT22;5826;54.756;9.192;2023-04-07T15:40:58;36.90;51.90
11540;DHT22;5826;54.756;9.192;2023-04-07T15:43:24;36.70;51.30
11540;DHT22;5826;54.756;9.192;2023-04-07T15:45:49;36.60;50.90
11540;DHT22;5826;54.756;9.192;2023-04-07T15:48:16;36.40;52.50
11540;DHT22;5826;54.756;9.192;2023-04-07T15:50:42;36.10;51.50
11540;DHT22;5826;54.756;9.192;2023-04-07T15:53:08;35.70;51.30
11540;DHT22;5826;54.756;9.192;2023-04-07T15:55:34;35.50;51.50
11540;DHT22;5826;54.756;9.192;2023-04-07T15:58:01;35.50;51.50
11540;DHT22;5826;54.756;9.192;2023-04-07T16:00:28;35.30;50.70
11540;DHT22;5826;54.756;9.192;2023-04-07T16:02:54;33.70;53.20
11540;DHT22;5826;54.756;9.192;2023-04-07T16:05:20;31.00;55.00
11540;DHT22;5826;54.756;9.192;2023-04-07T16:07:45;28.00;58.00
11540;DHT22;5826;54.756;9.192;2023-04-07T16:10:11;25.30;60.30